Time;durP1;ratioP1;P1;durP2;ratioP2;P2;SDS_P1;SDS_P2;PMS_P1;PMS_P2;Temp;Humidity;BMP_temperature;BMP_pressure;BME280_temperature;BME280_humidity;BME280_pressure;Samples;Min_cycle;Max_cycle;Signal;HPM_P1;HPM_P2
2022/02/10 00:38:41;;;;;;;14.27;5.22;;;;;;;1.54;81.95;93496.69;4898748;29;20064;-91
2022/02/10 00:52:41;;;;;;;22.92;6.65;;;;;;;1.47;83.45;93505.47;4968263;28;20142;-91
2022/02/10 01:34:41;;;;;;;16.77;7.13;;;;;;;1.39;88.67;93504.69;4954729;28;20199;-90
2022/02/10 01:37:34;;;;;;;16.63;6.82;;;;;;;1.22;87.51;93472.63;4932826;29;20107;-91
2022/02/10 02:05:59;;;;;;;21.85;8.25;;;;;;;1.64;90.05;93527.22;4825472;29;20049;-91
2022/02/10 02:12:54;;;;;;;22.45;8.05;;;;;;;1.50;90.07;93494.72;4879900;29;20097;-92
2022/02/10 02:16:07;;;;;;;;;;;;;;;;;;;;;
2022/02/10 02:22:45;;;;;;;16.98;8.35;;;;;;;1.20;89.10;93430.78;4861802;29;20132;-91
2022/02/10 02:25:50;;;;;;;21.48;8.43;;;;;;;1.63;89.54;93489.50;4857384;29;20159;-91
2022/02/10 03:14:35;;;;;;;18.73;9.03;;;;;;;1.31;89.36;93449.97;4873210;29;20052;-91
2022/02/10 05:56:12;;;;;;;22.48;8.68;;;;;;;1.03;90.47;93433.00;4976280;28;20035;-89
2022/02/10 07:46:44;;;;;;;19.73;7.65;;;;;;;17.99;36.70;93411.38;4990192;28;20500;-74
2022/02/10 07:56:11;;;;;;;21.05;7.47;;;;;;;18.29;33.15;93404.38;5010925;28;20041;-75
2022/02/10 09:27:46;;;;;;;23.13;8.38;;;;;;;8.80;57.63;93438.38;4994869;28;20066;-74
2022/02/10 09:56:58;;;;;;;20.80;8.73;;;;;;;8.59;58.40;93450.53;4992671;28;20053;-73
2022/02/10 10:02:20;;;;;;;29.25;9.55;;;;;;;8.58;58.07;93454.97;4974953;28;20576;-74
2022/02/10 10:04:53;;;;;;;21.63;10.55;;;;;;;8.59;57.20;93451.31;4993341;28;20046;-74
2022/02/10 10:07:46;;;;;;;27.35;9.68;;;;;;;8.63;56.81;93444.56;4975694;28;20031;-72
2022/02/10 10:19:00;;;;;;;34.50;13.57;;;;;;;9.19;56.37;93444.13;4962527;28;20035;-74
2022/02/10 10:51:09;;;;;;;37.58;15.00;;;;;;;8.60;56.45;93420.75;4922834;28;20514;-73
2022/02/10 10:54:24;;;;;;;40.13;15.93;;;;;;;9.04;56.96;93418.69;4982631;28;21450;-74
2022/02/10 10:56:31;;;;;;;34.75;13.57;;;;;;;9.09;55.31;93412.72;4985438;28;20057;-73
2022/02/10 11:41:48;;;;;;;29.30;10.80;;;;;;;10.02;53.81;93343.97;4991635;28;20045;-74
2022/02/10 12:38:26;;;;;;;23.05;9.65;;;;;;;10.62;48.36;93290.00;4994646;28;20030;-74
2022/02/10 12:42:15;;;;;;;22.40;10.10;;;;;;;10.23;49.12;93283.78;4994162;28;20054;-75
2022/02/10 14:14:32;;;;;;;27.05;7.20;;;;;;;11.55;45.09;93198.63;4956073;28;20552;-74
2022/02/10 14:17:02;;;;;;;21.63;7.03;;;;;;;11.17;46.26;93197.59;4973564;28;20047;-74
2022/02/10 14:19:39;;;;;;;18.88;6.65;;;;;;;10.84;46.91;93194.59;4977941;28;20034;-74
2022/02/10 14:22:11;;;;;;;18.08;7.32;;;;;;;10.55;47.47;93203.09;4982851;28;20050;-74
2022/02/10 14:27:22;;;;;;;26.70;7.95;;;;;;;10.76;47.00;93208.25;4980604;28;20034;-74
2022/02/10 14:29:48;;;;;;;22.52;7.93;;;;;;;10.29;48.07;93209.47;4982990;28;20073;-76
2022/02/10 14:32:19;;;;;;;17.42;8.02;;;;;;;10.81;46.49;93203.00;5000256;28;20484;-75
2022/02/10 14:34:50;;;;;;;21.63;8.60;;;;;;;11.07;46.24;93200.25;5011767;28;20630;-75
2022/02/10 14:40:04;;;;;;;18.17;7.57;;;;;;;10.87;46.56;93204.53;4993672;28;20395;-75
2022/02/10 15:45:49;;;;;;;23.52;6.90;;;;;;;10.25;50.67;93184.88;5003033;28;20039;-75
2022/02/10 16:11:06;;;;;;;24.90;7.65;;;;;;;8.48;54.42;93184.28;4937373;28;20048;-75
2022/02/10 16:18:52;;;;;;;23.52;7.50;;;;;;;8.08;55.44;93177.84;4987005;28;20383;-74
2022/02/10 16:21:31;;;;;;;24.02;7.78;;;;;;;8.02;55.28;93178.84;5012982;28;20034;-77
2022/02/10 16:24:02;;;;;;;17.73;7.15;;;;;;;7.94;55.51;93184.53;5014531;28;20034;-78
2022/02/10 16:27:16;;;;;;;17.88;7.32;;;;;;;7.87;55.91;93178.75;4966477;28;20038;-77
2022/02/10 16:29:17;;;;;;;25.23;6.63;;;;;;;7.79;56.08;93184.41;4973730;28;20084;-76
2022/02/10 16:31:42;;;;;;;18.95;6.50;;;;;;;7.66;56.44;93185.66;4989071;28;20069;-78
2022/02/10 16:34:09;;;;;;;16.42;6.60;;;;;;;7.52;56.77;93187.91;4992967;28;20096;-77
2022/02/10 16:36:34;;;;;;;27.83;6.80;;;;;;;7.45;57.08;93182.91;4975861;28;20515;-76
2022/02/10 16:39:00;;;;;;;15.30;6.85;;;;;;;7.37;57.20;93196.38;4980690;28;20093;-76
2022/02/10 16:41:27;;;;;;;18.85;7.15;;;;;;;7.25;57.93;93188.75;5008900;28;20522;-76
2022/02/10 16:43:52;;;;;;;18.42;5.97;;;;;;;7.12;57.98;93194.34;4977186;28;20078;-77
2022/02/10 16:46:18;;;;;;;15.05;5.85;;;;;;;6.99;58.50;93185.13;4972797;28;20130;-77
2022/02/10 16:48:44;;;;;;;16.30;6.43;;;;;;;6.90;58.69;93188.41;5010973;28;20444;-77
2022/02/10 16:51:10;;;;;;;19.13;6.03;;;;;;;6.83;59.44;93191.22;4990171;28;20125;-76
2022/02/10 16:53:45;;;;;;;16.98;6.43;;;;;;;6.71;59.85;93199.16;4991455;28;20129;-76
2022/02/10 16:56:18;;;;;;;19.13;6.97;;;;;;;6.61;59.93;93199.06;4992422;28;20507;-77
2022/02/10 16:59:33;;;;;;;22.08;7.32;;;;;;;6.58;60.40;93199.56;4977738;28;20052;-76
2022/02/10 17:25:22;;;;;;;19.40;6.75;;;;;;;5.88;63.39;93211.38;4995660;28;20038;-77
2022/02/10 17:27:54;;;;;;;19.13;6.53;;;;;;;5.82;63.50;93218.31;4972702;28;20400;-77
2022/02/10 17:33:06;;;;;;;19.02;7.15;;;;;;;5.68;64.35;93222.28;4980815;28;20026;-77
2022/02/10 17:35:46;;;;;;;23.13;7.43;;;;;;;5.61;64.70;93227.63;4965013;28;20058;-77
2022/02/10 17:54:04;;;;;;;25.30;7.22;;;;;;;5.07;66.64;93238.44;4993766;28;20446;-77
2022/02/10 17:56:31;;;;;;;14.30;6.70;;;;;;;5.02;66.65;93240.94;4975882;28;20051;-76
2022/02/10 17:58:56;;;;;;;18.48;7.18;;;;;;;4.98;67.38;93238.03;4959872;28;20042;-77
2022/02/10 18:01:22;;;;;;;24.52;10.75;;;;;;;4.91;67.56;93236.59;4959086;28;20046;-77
2022/02/10 18:03:48;;;;;;;19.65;7.55;;;;;;;4.83;67.57;93235.16;4974045;28;20042;-77
2022/02/10 18:06:25;;;;;;;17.85;7.25;;;;;;;4.75;67.92;93244.13;4972126;28;20038;-77
2022/02/10 18:15:11;;;;;;;17.63;7.55;;;;;;;4.59;68.71;93242.22;4997231;28;20121;-79
2022/02/10 18:17:17;;;;;;;21.98;8.85;;;;;;;4.53;68.90;93248.34;4949460;28;20038;-80
2022/02/10 18:19:56;;;;;;;22.75;8.38;;;;;;;4.47;69.12;93242.28;4979007;28;20035;-80
2022/02/10 18:27:44;;;;;;;19.27;7.18;;;;;;;4.33;69.62;93249.53;4995833;28;20085;-79
2022/02/10 18:30:19;;;;;;;20.23;7.83;;;;;;;4.31;69.69;93251.56;4982766;28;20125;-80
2022/02/10 19:10:54;;;;;;;34.88;11.68;;;;;;;4.19;71.83;93263.75;4973384;28;20034;-76
2022/02/10 19:13:21;;;;;;;;;;;;;;;4.17;72.20;93270.97;4970354;28;20041;-77
2022/02/10 19:15:46;;;;;;;14.82;6.03;;;;;;;4.12;71.97;93268.25;4975628;28;19918;-76
2022/02/10 19:18:12;;;;;;;16.30;6.38;;;;;;;4.14;72.54;93268.81;4991320;28;20039;-76
2022/02/10 19:20:39;;;;;;;16.42;6.50;;;;;;;4.16;72.65;93266.78;4990617;28;20026;-76
2022/02/10 19:23:06;;;;;;;20.98;8.25;;;;;;;4.17;72.85;93276.16;4991047;28;20058;-76
2022/02/10 19:25:33;;;;;;;19.90;7.70;;;;;;;4.15;72.84;93281.53;4992316;28;20042;-76
2022/02/10 19:27:59;;;;;;;23.90;7.45;;;;;;;4.17;73.03;93276.16;4974065;28;20035;-77
2022/02/10 19:30:27;;;;;;;19.10;6.80;;;;;;;4.15;72.92;93273.00;4974143;28;20108;-76
2022/02/10 19:32:57;;;;;;;17.20;7.78;;;;;;;4.12;72.68;93278.59;4958228;28;20068;-76
2022/02/10 19:35:25;;;;;;;17.70;6.53;;;;;;;4.10;72.50;93283.25;4954013;28;20046;-77
2022/02/10 19:37:57;;;;;;;18.63;7.85;;;;;;;4.07;72.68;93276.69;4956756;28;20047;-77
2022/02/10 19:40:27;;;;;;;20.05;7.55;;;;;;;4.11;72.95;93274.44;4971803;28;20077;-77
2022/02/10 19:42:55;;;;;;;24.30;7.65;;;;;;;4.13;73.50;93275.00;4956387;28;20454;-76
2022/02/10 19:45:21;;;;;;;16.77;6.53;;;;;;;4.11;73.61;93274.44;4955071;28;20023;-77
2022/02/10 19:47:48;;;;;;;18.92;6.70;;;;;;;4.12;73.18;93281.19;4956525;28;20046;-77
2022/02/10 19:50:17;;;;;;;16.75;6.78;;;;;;;4.08;72.79;93280.88;4953266;28;20045;-77
2022/02/10 19:52:47;;;;;;;17.75;6.80;;;;;;;4.07;72.75;93274.09;4954441;28;20500;-76
2022/02/10 19:55:23;;;;;;;18.05;6.20;;;;;;;4.07;73.33;93276.69;4968146;28;20069;-77
2022/02/10 19:57:52;;;;;;;18.70;6.45;;;;;;;4.08;73.55;93272.31;4953367;28;20451;-76
2022/02/10 20:00:23;;;;;;;19.88;6.70;;;;;;;4.08;73.94;93277.50;4970073;28;20089;-77
2022/02/10 20:02:49;;;;;;;16.17;6.22;;;;;;;4.10;74.51;93283.25;4979319;28;20049;-77
2022/02/10 20:05:18;;;;;;;22.63;6.88;;;;;;;4.11;74.44;93277.03;4963093;28;20141;-77
2022/02/10 20:07:48;;;;;;;22.20;6.70;;;;;;;4.14;74.51;93281.75;4987304;28;20121;-76
2022/02/10 20:10:14;;;;;;;19.73;6.85;;;;;;;4.16;74.39;93279.75;4971545;28;20034;-77
2022/02/10 20:12:40;;;;;;;18.05;6.70;;;;;;;4.19;74.60;93279.31;4959840;28;20041;-76
2022/02/10 20:15:08;;;;;;;26.52;7.65;;;;;;;4.20;74.39;93272.31;4980158;28;20039;-76
2022/02/10 20:17:33;;;;;;;17.83;6.43;;;;;;;4.25;74.34;93273.19;4983157;28;20104;-77
2022/02/10 20:19:59;;;;;;;23.95;6.68;;;;;;;4.27;74.07;93278.16;4946160;29;20441;-76
2022/02/10 20:22:26;;;;;;;17.45;6.32;;;;;;;4.30;74.20;93280.28;4979921;28;20023;-76
2022/02/10 20:24:58;;;;;;;21.35;6.80;;;;;;;4.32;74.23;93279.06;4973173;28;20423;-75
2022/02/10 20:27:24;;;;;;;16.10;6.63;;;;;;;4.34;74.00;93269.22;4973071;28;20034;-77
2022/02/10 20:29:50;;;;;;;20.27;6.53;;;;;;;4.37;73.77;93271.38;4947922;28;20054;-76
2022/02/10 20:32:16;;;;;;;23.90;7.40;;;;;;;4.38;73.95;93270.34;4938280;29;20130;-76
2022/02/10 20:34:41;;;;;;;20.35;8.35;;;;;;;4.41;74.04;93276.88;4953833;28;20134;-76
2022/02/10 20:37:08;;;;;;;19.40;6.72;;;;;;;4.40;73.95;93275.31;4976361;28;20534;-76
2022/02/10 20:39:33;;;;;;;21.13;6.45;;;;;;;4.43;74.03;93271.47;4944423;28;20531;-76
2022/02/10 20:42:05;;;;;;;19.90;5.95;;;;;;;4.46;73.97;93278.78;4976399;28;20038;-76
2022/02/10 20:44:32;;;;;;;19.33;7.28;;;;;;;4.47;74.57;93275.19;4976687;28;20042;-76
2022/02/10 20:46:59;;;;;;;16.88;7.05;;;;;;;4.51;74.47;93279.69;4960873;28;20038;-76
2022/02/10 20:49:27;;;;;;;26.95;7.55;;;;;;;4.49;74.22;93273.16;4994773;28;20501;-76
2022/02/10 20:51:55;;;;;;;21.00;7.07;;;;;;;4.55;74.42;93282.63;4976588;28;20030;-76
2022/02/10 20:54:22;;;;;;;17.27;6.72;;;;;;;4.57;74.49;93288.34;5003874;28;20081;-76
2022/02/10 20:56:47;;;;;;;14.02;6.65;;;;;;;4.60;74.57;93287.91;5003308;28;20500;-75
2022/02/10 20:59:27;;;;;;;22.30;7.55;;;;;;;4.63;74.71;93284.06;4994671;28;20022;-76
2022/02/10 21:04:53;;;;;;;17.95;7.18;;;;;;;4.64;74.92;93286.44;4966219;28;20519;-76
2022/02/10 21:09:56;;;;;;;16.52;6.93;;;;;;;4.69;74.42;93289.13;4971244;28;20072;-74
2022/02/10 21:12:22;;;;;;;16.33;6.45;;;;;;;4.70;73.98;93282.91;4987383;28;20399;-74
2022/02/10 21:14:48;;;;;;;18.90;6.38;;;;;;;4.72;74.55;93280.09;4972971;28;20045;-74
2022/02/10 21:17:20;;;;;;;21.52;6.95;;;;;;;4.72;74.51;93282.69;4974647;28;20523;-75
2022/02/10 21:19:46;;;;;;;15.98;6.10;;;;;;;4.72;74.50;93278.28;4971166;28;20069;-75
2022/02/10 21:22:16;;;;;;;15.25;6.15;;;;;;;4.74;74.25;93285.84;4990300;28;20062;-75
2022/02/10 21:30:02;;;;;;;21.95;7.20;;;;;;;4.79;75.13;93276.34;4993694;28;20435;-75
2022/02/10 21:32:30;;;;;;;16.63;6.88;;;;;;;4.80;75.36;93274.53;4956515;28;20049;-75
2022/02/10 21:35:10;;;;;;;21.60;6.60;;;;;;;4.78;75.04;93277.38;4977488;28;20508;-75
2022/02/10 21:37:53;;;;;;;18.58;6.30;;;;;;;4.74;74.81;93271.06;4971835;28;20114;-75
2022/02/10 21:54:52;;;;;;;13.10;6.20;;;;;;;4.76;75.10;93266.44;4932874;29;20126;-75
2022/02/10 22:20:04;;;;;;;21.77;7.18;;;;;;;4.50;74.04;93202.13;4964957;28;20820;-89
2022/02/10 22:23:17;;;;;;;17.25;7.53;;;;;;;4.51;74.38;93204.50;4942796;28;20492;-89
2022/02/10 22:26:30;;;;;;;15.52;6.32;;;;;;;4.55;74.17;93212.63;4948402;28;20030;-89
2022/02/10 22:33:18;;;;;;;21.42;6.70;;;;;;;4.86;74.08;93257.25;4963407;28;20041;-90
2022/02/10 22:35:44;;;;;;;17.80;6.30;;;;;;;4.83;74.46;93250.72;4982129;28;20057;-90
2022/02/10 22:38:41;;;;;;;23.98;7.35;;;;;;;4.52;74.50;93200.09;4965342;28;20078;-90
2022/02/10 22:41:33;;;;;;;18.35;7.43;;;;;;;4.59;74.47;93211.91;4978932;28;20030;-89
2022/02/10 22:44:21;;;;;;;;;;;;;;;;;;;;;
2022/02/10 22:47:11;;;;;;;20.08;7.60;;;;;;;4.47;74.45;93187.81;4988512;28;20488;-90
2022/02/10 22:50:02;;;;;;;24.85;7.32;;;;;;;4.44;74.65;93182.34;4978612;28;20038;-90
2022/02/10 22:52:31;;;;;;;18.77;7.10;;;;;;;4.57;74.85;93205.38;4960145;28;20049;-90
2022/02/10 22:55:34;;;;;;;20.27;7.75;;;;;;;4.85;75.09;93245.31;4961140;28;20073;-91
2022/02/10 22:58:10;;;;;;;15.70;7.10;;;;;;;4.37;74.56;93172.88;4953620;28;20120;-90
2022/02/10 23:00:50;;;;;;;15.48;7.65;;;;;;;4.36;74.35;93175.69;4961124;28;20093;-90
2022/02/10 23:03:32;;;;;;;19.77;6.72;;;;;;;4.53;74.64;93201.69;4946803;28;20037;-89
2022/02/10 23:06:10;;;;;;;14.77;7.20;;;;;;;4.42;74.53;93174.78;4946102;28;20039;-90
2022/02/10 23:08:51;;;;;;;;;;;;;;;;;;;;;
2022/02/10 23:11:50;;;;;;;15.55;6.22;;;;;;;4.71;74.52;93219.66;4997838;28;20053;-89
2022/02/10 23:14:30;;;;;;;18.85;6.20;;;;;;;4.48;74.46;93188.59;4962357;28;20503;-89
2022/02/10 23:17:24;;;;;;;16.75;6.80;;;;;;;4.72;74.90;93226.41;4980025;28;20046;-90
2022/02/10 23:23:26;;;;;;;18.30;6.00;;;;;;;4.67;74.80;93208.16;4971673;28;20136;-91
2022/02/10 23:26:21;;;;;;;13.57;5.88;;;;;;;4.85;74.67;93235.72;4975028;28;20111;-89
2022/02/10 23:29:15;;;;;;;20.20;6.20;;;;;;;4.48;74.87;93175.63;4976324;28;20039;-90
2022/02/10 23:32:02;;;;;;;17.58;6.65;;;;;;;4.72;75.35;93208.25;4977751;28;20049;-90
2022/02/10 23:34:51;;;;;;;;;;;;;;;;;;;;;
2022/02/10 23:37:54;;;;;;;;;;;;;;;;;;;;;
2022/02/10 23:41:43;;;;;;;22.13;6.93;;;;;;;4.44;75.02;93166.78;4990844;28;20039;-91
2022/02/10 23:43:53;;;;;;;16.80;5.40;;;;;;;4.51;75.19;93185.56;4967004;28;20042;-90
2022/02/10 23:46:42;;;;;;;;;;;;;;;;;;;;;
2022/02/10 23:49:36;;;;;;;17.08;6.28;;;;;;;4.60;75.04;93194.56;4987566;28;20038;-89
2022/02/10 23:52:26;;;;;;;18.08;6.47;;;;;;;4.60;75.18;93191.97;4975030;28;20042;-91
2022/02/10 23:55:29;;;;;;;18.33;6.70;;;;;;;4.40;75.25;93161.25;4992830;28;20042;-90
2022/02/10 23:58:25;;;;;;;16.90;6.35;;;;;;;4.45;75.26;93166.53;4955146;28;20399;-91
